DTTADTTJ

Guest
Details From DTTA - Carthage
To DTTJ - Djerba Zarzis
Flight Number -
Tags Generated
Created
Modified
Stats Distance 181 nm / 335 km
Max Altitude 0 ft / 0 m
Waypoints 2
Social Downloads 1
Likes 0
Share VATSIM

Download

Looking for another format? Having issues loading an existing format? Contact us
Advertisement - Login to hide

Notes

Generated

Route

DTTA DTTJ

ID Type Via Altitude Latitude Longitude Leg Dist Tot Dist Heading (true) Name
O DTTA APT - 0 ft / 0 m 36.85426˚ 10.21769˚ - 0 nm - -
O DTTJ APT - 0 ft / 0 m 33.87503˚ 10.76034˚ 180 nm 180 nm 171° / 172° -

Altitude Profile

Advertisement - Login to hide

Weather


0- 5 10 15 20 25 30 35+ Temperature / ° C

Clouds and Precipitation
Forecast for 2018-05-23 12:00 UTC. Updated 11 minutes ago

Ground ~20,000 ft ~40,000 ft Winds

DTTA

Details ICAO DTTA (TUN)
Name CARTHAGE
Region Tunisia
Timezone Africa/Tunis (UTC+1.0)
Stats Elevation 22 ft / 7 m (AMSL)
Location 36.851267° 10.230027°
Runways 2
Magnetic Variation 2.445° E

METAR

DTTA 231130Z 30009KT 230V350 9999 SCT026 26/13 Q1018 NOSIG

Decode

TAF

TAF DTTA 230540Z 2306/2406 17006KT 8000 SCT020 SCT023 PROB30 TEMPO 2403/2408 3000 BR FEW015

Decode

Departure Runways

ID Width Length Bearing (true) Bearing (mag) Surface Threshold Offset Overrun Length
01 148 ft / 45 m 10,502 ft / 3,201 m 12.29° 9.84° Asphalt 0 ft / 0 m 197 ft / 60 m
11 148 ft / 45 m 9,345 ft / 2,848 m 112.55° 110.10° Asphalt 0 ft / 0 m 643 ft / 196 m
19 148 ft / 45 m 10,502 ft / 3,201 m 192.29° 189.84° Asphalt 0 ft / 0 m 197 ft / 60 m
29 148 ft / 45 m 9,345 ft / 2,848 m 292.57° 290.12° Asphalt 657 ft / 200 m 197 ft / 60 m

DTTJ

Details ICAO DTTJ (DJE)
Name Djerba Zarzis
Region Tunisia
Timezone Africa/Tunis (UTC+1.0)
Stats Elevation 18 ft / 5 m (AMSL)
Location 33.875447° 10.777153°
Runways 1
Magnetic Variation 2.367° E

METAR

DTTJ 231130Z 04010KT 9999 FEW020 24/09 Q1019 NOSIG

Decode

TAF

TAF DTTJ 230540Z 2306/2406 03004KT 8000 NSC 8000 SCT020

Decode

Destination Runways

ID Width Length Bearing (true) Bearing (mag) Surface Threshold Offset Overrun Length
09 148 ft / 45 m 10,191 ft / 3,106 m 88.28° 85.91° Asphalt 0 ft / 0 m 197 ft / 60 m
27 148 ft / 45 m 10,191 ft / 3,106 m 268.30° 265.93° Asphalt 0 ft / 0 m 197 ft / 60 m

Approach Navaids

Runway Type Ident Frequency Range Bearing (true) Bearing (mag) Slope Elevation
09 Localiser JAZ 109.50 MHz 18 nm / 33 km 88.31° 85.94° - 18 ft / 5 m (AMSL)
09 Glidescope JAZ 109.50 MHz 10 nm / 19 km 88.29° 85.92° 3.00° 18 ft / 5 m (AMSL)

Popular Alternatives